sensor_id;sensor_type;location;lat;lon;timestamp;pressure;altitude;pressure_sealevel;temperature;humidity
35892;BME280;21993;42.672;23.296;2024-03-06T00:00:46;94486.00;;;9.50;65.65
35892;BME280;21993;42.672;23.296;2024-03-06T00:03:12;94487.78;;;9.49;66.01
35892;BME280;21993;42.672;23.296;2024-03-06T00:05:37;94477.88;;;9.43;65.84
35892;BME280;21993;42.672;23.296;2024-03-06T00:08:03;94489.97;;;9.35;65.97
35892;BME280;21993;42.672;23.296;2024-03-06T00:10:29;94492.16;;;9.29;66.46
35892;BME280;21993;42.672;23.296;2024-03-06T00:12:55;94489.97;;;9.35;66.45
35892;BME280;21993;42.672;23.296;2024-03-06T00:15:20;94490.50;;;9.28;66.45
35892;BME280;21993;42.672;23.296;2024-03-06T00:17:46;94491.13;;;9.11;66.54
35892;BME280;21993;42.672;23.296;2024-03-06T00:20:12;94489.03;;;9.05;66.83
35892;BME280;21993;42.672;23.296;2024-03-06T00:22:37;94492.16;;;8.99;67.51
35892;BME280;21993;42.672;23.296;2024-03-06T00:25:03;94487.34;;;8.94;67.54
35892;BME280;21993;42.672;23.296;2024-03-06T00:27:29;94486.50;;;8.94;67.85
35892;BME280;21993;42.672;23.296;2024-03-06T00:29:54;94485.75;;;9.13;66.96
35892;BME280;21993;42.672;23.296;2024-03-06T00:32:20;94483.66;;;9.07;66.77
35892;BME280;21993;42.672;23.296;2024-03-06T00:34:45;94485.03;;;9.01;67.28
35892;BME280;21993;42.672;23.296;2024-03-06T00:37:11;94490.66;;;8.96;67.93
35892;BME280;21993;42.672;23.296;2024-03-06T00:39:36;94481.66;;;8.89;67.33
35892;BME280;21993;42.672;23.296;2024-03-06T00:42:02;94483.91;;;8.94;67.21
35892;BME280;21993;42.672;23.296;2024-03-06T00:44:28;94482.06;;;8.85;67.35
35892;BME280;21993;42.672;23.296;2024-03-06T00:46:53;94487.13;;;8.77;67.41
35892;BME280;21993;42.672;23.296;2024-03-06T00:49:19;94483.81;;;8.74;67.39
35892;BME280;21993;42.672;23.296;2024-03-06T00:51:44;94477.88;;;8.72;67.78
35892;BME280;21993;42.672;23.296;2024-03-06T00:54:10;94479.00;;;8.80;67.72
35892;BME280;21993;42.672;23.296;2024-03-06T00:56:39;94477.63;;;8.76;67.94
35892;BME280;21993;42.672;23.296;2024-03-06T00:59:04;94488.34;;;8.72;68.36
35892;BME280;21993;42.672;23.296;2024-03-06T01:01:30;94487.81;;;8.79;67.64
35892;BME280;21993;42.672;23.296;2024-03-06T01:03:55;94488.56;;;8.60;68.21
35892;BME280;21993;42.672;23.296;2024-03-06T01:06:21;94490.06;;;8.62;68.64
35892;BME280;21993;42.672;23.296;2024-03-06T01:08:46;94488.91;;;8.55;69.19
35892;BME280;21993;42.672;23.296;2024-03-06T01:11:12;94494.75;;;8.59;68.95
35892;BME280;21993;42.672;23.296;2024-03-06T01:13:40;94496.53;;;8.58;68.71
35892;BME280;21993;42.672;23.296;2024-03-06T01:16:06;94494.25;;;8.44;69.48
35892;BME280;21993;42.672;23.296;2024-03-06T01:18:31;94484.72;;;8.43;69.75
35892;BME280;21993;42.672;23.296;2024-03-06T01:20:58;94481.66;;;8.38;69.32
35892;BME280;21993;42.672;23.296;2024-03-06T01:23:24;94486.31;;;8.34;69.74
35892;BME280;21993;42.672;23.296;2024-03-06T01:25:49;94487.03;;;8.36;69.30
35892;BME280;21993;42.672;23.296;2024-03-06T01:28:15;94486.44;;;8.33;70.15
35892;BME280;21993;42.672;23.296;2024-03-06T01:30:40;94487.84;;;8.37;69.25
35892;BME280;21993;42.672;23.296;2024-03-06T01:33:08;94483.81;;;8.33;69.54
35892;BME280;21993;42.672;23.296;2024-03-06T01:35:35;94483.31;;;8.39;69.16
35892;BME280;21993;42.672;23.296;2024-03-06T01:38:00;94478.53;;;8.44;69.65
35892;BME280;21993;42.672;23.296;2024-03-06T01:40:26;94477.13;;;8.40;69.17
35892;BME280;21993;42.672;23.296;2024-03-06T01:42:52;94487.25;;;8.33;68.88
35892;BME280;21993;42.672;23.296;2024-03-06T01:45:18;94474.81;;;8.26;69.70
35892;BME280;21993;42.672;23.296;2024-03-06T01:47:44;94487.31;;;8.22;69.52
35892;BME280;21993;42.672;23.296;2024-03-06T01:50:10;94483.44;;;8.16;70.52
35892;BME280;21993;42.672;23.296;2024-03-06T01:52:37;94475.81;;;8.13;69.67
35892;BME280;21993;42.672;23.296;2024-03-06T01:55:04;94481.19;;;8.12;69.68
35892;BME280;21993;42.672;23.296;2024-03-06T01:57:31;94478.31;;;8.15;69.66
35892;BME280;21993;42.672;23.296;2024-03-06T01:59:57;94480.00;;;8.16;69.25
35892;BME280;21993;42.672;23.296;2024-03-06T02:02:23;94480.47;;;8.10;69.00
35892;BME280;21993;42.672;23.296;2024-03-06T02:04:48;94489.50;;;8.06;69.88
35892;BME280;21993;42.672;23.296;2024-03-06T02:07:15;94490.88;;;8.00;69.18
35892;BME280;21993;42.672;23.296;2024-03-06T02:09:41;94495.06;;;7.92;70.16
35892;BME280;21993;42.672;23.296;2024-03-06T02:12:07;94502.66;;;7.95;69.86
35892;BME280;21993;42.672;23.296;2024-03-06T02:14:36;94501.00;;;7.94;70.09
35892;BME280;21993;42.672;23.296;2024-03-06T02:17:02;94497.41;;;7.95;70.23
35892;BME280;21993;42.672;23.296;2024-03-06T02:19:48;94491.09;;;7.97;70.85
35892;BME280;21993;42.672;23.296;2024-03-06T02:22:13;94507.59;;;8.09;69.13
35892;BME280;21993;42.672;23.296;2024-03-06T02:24:43;94513.78;;;7.97;69.04
35892;BME280;21993;42.672;23.296;2024-03-06T02:27:10;94517.00;;;8.00;70.04
35892;BME280;21993;42.672;23.296;2024-03-06T02:29:35;94507.41;;;7.89;70.52
35892;BME280;21993;42.672;23.296;2024-03-06T02:32:01;94517.53;;;7.83;70.01
35892;BME280;21993;42.672;23.296;2024-03-06T02:34:29;94518.38;;;7.83;70.49
35892;BME280;21993;42.672;23.296;2024-03-06T02:36:57;94517.97;;;7.88;71.20
35892;BME280;21993;42.672;23.296;2024-03-06T02:39:23;94517.16;;;7.87;70.46
35892;BME280;21993;42.672;23.296;2024-03-06T02:41:48;94518.69;;;7.90;70.12
35892;BME280;21993;42.672;23.296;2024-03-06T02:44:14;94524.56;;;7.82;71.11
35892;BME280;21993;42.672;23.296;2024-03-06T02:46:40;94524.22;;;7.76;71.59
35892;BME280;21993;42.672;23.296;2024-03-06T02:49:06;94515.16;;;7.80;70.73
35892;BME280;21993;42.672;23.296;2024-03-06T02:51:32;94521.28;;;7.90;69.61
35892;BME280;21993;42.672;23.296;2024-03-06T02:53:57;94510.75;;;7.80;70.17
35892;BME280;21993;42.672;23.296;2024-03-06T02:56:23;94508.88;;;7.82;69.94
35892;BME280;21993;42.672;23.296;2024-03-06T02:58:48;94516.84;;;7.70;70.55
35892;BME280;21993;42.672;23.296;2024-03-06T03:01:14;94521.03;;;7.61;70.93
35892;BME280;21993;42.672;23.296;2024-03-06T03:03:41;94523.06;;;7.57;71.18
35892;BME280;21993;42.672;23.296;2024-03-06T03:06:07;94524.88;;;7.46;71.25
35892;BME280;21993;42.672;23.296;2024-03-06T03:08:32;94525.00;;;7.44;71.21
35892;BME280;21993;42.672;23.296;2024-03-06T03:10:58;94526.19;;;7.40;71.09
35892;BME280;21993;42.672;23.296;2024-03-06T03:13:23;94524.19;;;7.32;71.51
35892;BME280;21993;42.672;23.296;2024-03-06T03:15:49;94525.25;;;7.41;70.76
35892;BME280;21993;42.672;23.296;2024-03-06T03:18:14;94528.81;;;7.40;71.47
35892;BME280;21993;42.672;23.296;2024-03-06T03:20:40;94526.19;;;7.40;71.20
35892;BME280;21993;42.672;23.296;2024-03-06T03:23:05;94522.16;;;7.36;71.62
35892;BME280;21993;42.672;23.296;2024-03-06T03:25:37;94538.53;;;7.27;71.74
35892;BME280;21993;42.672;23.296;2024-03-06T03:28:02;94536.72;;;7.39;71.12
35892;BME280;21993;42.672;23.296;2024-03-06T03:30:28;94541.63;;;7.32;71.51
35892;BME280;21993;42.672;23.296;2024-03-06T03:32:53;94538.31;;;7.19;71.75
35892;BME280;21993;42.672;23.296;2024-03-06T03:35:19;94540.22;;;7.17;71.98
35892;BME280;21993;42.672;23.296;2024-03-06T03:37:51;94533.56;;;7.24;71.23
35892;BME280;21993;42.672;23.296;2024-03-06T03:40:17;94539.25;;;7.18;71.38
35892;BME280;21993;42.672;23.296;2024-03-06T03:42:44;94534.16;;;7.16;71.92
35892;BME280;21993;42.672;23.296;2024-03-06T03:45:09;94534.38;;;7.13;71.14
35892;BME280;21993;42.672;23.296;2024-03-06T03:47:35;94538.06;;;7.11;71.38
35892;BME280;21993;42.672;23.296;2024-03-06T03:50:00;94541.25;;;7.14;71.38
35892;BME280;21993;42.672;23.296;2024-03-06T03:52:26;94534.63;;;7.10;72.14
35892;BME280;21993;42.672;23.296;2024-03-06T03:54:51;94545.44;;;7.17;72.05
35892;BME280;21993;42.672;23.296;2024-03-06T03:57:17;94533.44;;;7.14;71.73
35892;BME280;21993;42.672;23.296;2024-03-06T03:59:42;94547.56;;;7.12;71.59
35892;BME280;21993;42.672;23.296;2024-03-06T04:02:08;94542.47;;;7.10;71.44
35892;BME280;21993;42.672;23.296;2024-03-06T04:04:34;94554.69;;;7.10;71.23
35892;BME280;21993;42.672;23.296;2024-03-06T04:07:00;94545.91;;;6.99;72.20
35892;BME280;21993;42.672;23.296;2024-03-06T04:09:27;94550.50;;;6.96;72.01
35892;BME280;21993;42.672;23.296;2024-03-06T04:11:53;94550.50;;;6.96;71.51
35892;BME280;21993;42.672;23.296;2024-03-06T04:14:18;94562.63;;;6.97;71.91
35892;BME280;21993;42.672;23.296;2024-03-06T04:16:47;94561.91;;;6.95;72.11
35892;BME280;21993;42.672;23.296;2024-03-06T04:19:13;94557.50;;;6.95;71.88
35892;BME280;21993;42.672;23.296;2024-03-06T04:21:42;94569.41;;;6.99;71.81
35892;BME280;21993;42.672;23.296;2024-03-06T04:24:08;94573.66;;;7.00;71.23
35892;BME280;21993;42.672;23.296;2024-03-06T04:26:34;94576.84;;;6.93;70.94
35892;BME280;21993;42.672;23.296;2024-03-06T04:28:59;94569.03;;;6.93;70.89
35892;BME280;21993;42.672;23.296;2024-03-06T04:31:25;94572.59;;;7.03;71.44
35892;BME280;21993;42.672;23.296;2024-03-06T04:33:50;94576.50;;;7.09;71.43
35892;BME280;21993;42.672;23.296;2024-03-06T04:36:16;94585.25;;;6.96;71.66
35892;BME280;21993;42.672;23.296;2024-03-06T04:38:42;94576.47;;;6.86;72.09
35892;BME280;21993;42.672;23.296;2024-03-06T04:41:07;94581.59;;;6.88;72.16
35892;BME280;21993;42.672;23.296;2024-03-06T04:43:33;94586.09;;;6.86;71.83
35892;BME280;21993;42.672;23.296;2024-03-06T04:46:00;94589.97;;;6.80;72.32
35892;BME280;21993;42.672;23.296;2024-03-06T04:48:25;94586.69;;;6.89;72.43
35892;BME280;21993;42.672;23.296;2024-03-06T04:50:51;94595.44;;;6.88;72.49
35892;BME280;21993;42.672;23.296;2024-03-06T04:53:17;94595.38;;;6.90;72.64
35892;BME280;21993;42.672;23.296;2024-03-06T04:55:42;94592.63;;;6.91;72.02
35892;BME280;21993;42.672;23.296;2024-03-06T04:58:08;94597.59;;;6.94;72.40
35892;BME280;21993;42.672;23.296;2024-03-06T05:00:34;94600.22;;;6.94;71.78
35892;BME280;21993;42.672;23.296;2024-03-06T05:02:59;94595.25;;;6.91;72.60
35892;BME280;21993;42.672;23.296;2024-03-06T05:05:25;94595.44;;;6.88;72.40
35892;BME280;21993;42.672;23.296;2024-03-06T05:07:50;94603.19;;;6.90;72.34
35892;BME280;21993;42.672;23.296;2024-03-06T05:10:17;94594.50;;;6.89;72.48
35892;BME280;21993;42.672;23.296;2024-03-06T05:12:42;94601.03;;;6.95;71.82
35892;BME280;21993;42.672;23.296;2024-03-06T05:15:09;94601.63;;;6.87;72.10
35892;BME280;21993;42.672;23.296;2024-03-06T05:17:35;94609.00;;;6.93;72.64
35892;BME280;21993;42.672;23.296;2024-03-06T05:20:02;94601.88;;;6.95;72.48
35892;BME280;21993;42.672;23.296;2024-03-06T05:22:29;94596.19;;;7.01;72.30
35892;BME280;21993;42.672;23.296;2024-03-06T05:24:55;94604.41;;;7.08;71.56
35892;BME280;21993;42.672;23.296;2024-03-06T05:27:21;94602.63;;;7.09;71.87
35892;BME280;21993;42.672;23.296;2024-03-06T05:29:46;94609.75;;;7.07;71.58
35892;BME280;21993;42.672;23.296;2024-03-06T05:32:12;94610.16;;;6.89;71.71
35892;BME280;21993;42.672;23.296;2024-03-06T05:34:38;94613.38;;;7.04;71.62
35892;BME280;21993;42.672;23.296;2024-03-06T05:37:04;94607.81;;;6.97;71.52
35892;BME280;21993;42.672;23.296;2024-03-06T05:39:32;94620.19;;;7.07;71.31
35892;BME280;21993;42.672;23.296;2024-03-06T05:42:02;94613.53;;;7.25;71.08
35892;BME280;21993;42.672;23.296;2024-03-06T05:44:31;94619.13;;;7.31;71.07
35892;BME280;21993;42.672;23.296;2024-03-06T05:46:58;94622.31;;;7.35;70.31
35892;BME280;21993;42.672;23.296;2024-03-06T05:49:24;94621.59;;;7.44;70.32
35892;BME280;21993;42.672;23.296;2024-03-06T05:51:50;94619.13;;;7.31;70.94
35892;BME280;21993;42.672;23.296;2024-03-06T05:54:19;94618.28;;;7.31;71.35
35892;BME280;21993;42.672;23.296;2024-03-06T05:56:44;94634.31;;;7.38;71.60
35892;BME280;21993;42.672;23.296;2024-03-06T05:59:10;94625.19;;;7.32;71.42
35892;BME280;21993;42.672;23.296;2024-03-06T06:01:36;94632.31;;;7.41;70.63
35892;BME280;21993;42.672;23.296;2024-03-06T06:04:01;94633.97;;;7.42;70.87
35892;BME280;21993;42.672;23.296;2024-03-06T06:06:27;94635.97;;;7.50;70.38
35892;BME280;21993;42.672;23.296;2024-03-06T06:08:53;94635.38;;;7.46;71.17
35892;BME280;21993;42.672;23.296;2024-03-06T06:11:19;94633.59;;;7.47;71.10
35892;BME280;21993;42.672;23.296;2024-03-06T06:13:46;94642.50;;;7.55;70.12
35892;BME280;21993;42.672;23.296;2024-03-06T06:16:12;94634.56;;;7.57;70.92
35892;BME280;21993;42.672;23.296;2024-03-06T06:18:37;94639.91;;;7.67;70.13
35892;BME280;21993;42.672;23.296;2024-03-06T06:21:07;94641.69;;;7.66;69.62
35892;BME280;21993;42.672;23.296;2024-03-06T06:23:34;94630.97;;;7.69;69.90
35892;BME280;21993;42.672;23.296;2024-03-06T06:25:59;94634.66;;;7.78;70.02
35892;BME280;21993;42.672;23.296;2024-03-06T06:28:25;94635.84;;;7.85;68.89
35892;BME280;21993;42.672;23.296;2024-03-06T06:30:50;94637.00;;;7.81;70.22
35892;BME280;21993;42.672;23.296;2024-03-06T06:33:18;94631.31;;;7.87;69.80
35892;BME280;21993;42.672;23.296;2024-03-06T06:35:44;94631.66;;;7.94;70.17
35892;BME280;21993;42.672;23.296;2024-03-06T06:38:10;94620.72;;;8.00;69.47
35892;BME280;21993;42.672;23.296;2024-03-06T06:40:35;94625.78;;;8.12;69.52
35892;BME280;21993;42.672;23.296;2024-03-06T06:43:01;94629.72;;;8.18;68.68
35892;BME280;21993;42.672;23.296;2024-03-06T06:45:26;94624.06;;;8.34;68.65
35892;BME280;21993;42.672;23.296;2024-03-06T06:47:52;94633.09;;;8.30;68.30
35892;BME280;21993;42.672;23.296;2024-03-06T06:50:18;94635.38;;;8.34;67.79
35892;BME280;21993;42.672;23.296;2024-03-06T06:52:47;94629.91;;;8.37;68.17
35892;BME280;21993;42.672;23.296;2024-03-06T06:55:12;94633.31;;;8.49;67.49
35892;BME280;21993;42.672;23.296;2024-03-06T06:57:38;94636.25;;;8.56;68.58
35892;BME280;21993;42.672;23.296;2024-03-06T07:00:04;94637.25;;;8.76;66.71
35892;BME280;21993;42.672;23.296;2024-03-06T07:02:37;94631.06;;;8.77;67.16
35892;BME280;21993;42.672;23.296;2024-03-06T07:05:05;94644.28;;;8.75;66.80
35892;BME280;21993;42.672;23.296;2024-03-06T07:07:30;94636.84;;;8.80;66.75
35892;BME280;21993;42.672;23.296;2024-03-06T07:09:56;94649.66;;;8.94;66.96
35892;BME280;21993;42.672;23.296;2024-03-06T07:12:22;94644.75;;;9.01;66.47
35892;BME280;21993;42.672;23.296;2024-03-06T07:14:47;94641.47;;;9.09;65.98
35892;BME280;21993;42.672;23.296;2024-03-06T07:17:13;94641.34;;;9.10;66.23
35892;BME280;21993;42.672;23.296;2024-03-06T07:19:38;94641.00;;;9.24;65.98
35892;BME280;21993;42.672;23.296;2024-03-06T07:22:05;94639.47;;;9.22;65.74
35892;BME280;21993;42.672;23.296;2024-03-06T07:24:30;94640.34;;;9.32;65.94
35892;BME280;21993;42.672;23.296;2024-03-06T07:26:56;94646.69;;;9.50;65.15
35892;BME280;21993;42.672;23.296;2024-03-06T07:29:21;94643.16;;;9.71;64.17
35892;BME280;21993;42.672;23.296;2024-03-06T07:31:47;94642.44;;;9.59;65.17
35892;BME280;21993;42.672;23.296;2024-03-06T07:34:13;94630.75;;;9.73;65.46
35892;BME280;21993;42.672;23.296;2024-03-06T07:36:40;94623.06;;;9.91;64.60
35892;BME280;21993;42.672;23.296;2024-03-06T07:39:05;94635.53;;;10.08;63.77
35892;BME280;21993;42.672;23.296;2024-03-06T07:41:34;94637.94;;;10.21;63.23
35892;BME280;21993;42.672;23.296;2024-03-06T07:44:00;94636.94;;;10.12;63.48
35892;BME280;21993;42.672;23.296;2024-03-06T07:46:26;94634.72;;;10.17;64.22
35892;BME280;21993;42.672;23.296;2024-03-06T07:48:51;94630.41;;;10.27;63.93
35892;BME280;21993;42.672;23.296;2024-03-06T07:51:17;94636.22;;;10.60;62.74
35892;BME280;21993;42.672;23.296;2024-03-06T07:53:43;94628.91;;;10.63;62.19
35892;BME280;21993;42.672;23.296;2024-03-06T07:56:11;94633.03;;;10.76;62.59
35892;BME280;21993;42.672;23.296;2024-03-06T07:58:37;94630.41;;;10.95;62.13
35892;BME280;21993;42.672;23.296;2024-03-06T08:01:03;94623.47;;;11.13;61.37
35892;BME280;21993;42.672;23.296;2024-03-06T08:03:28;94631.31;;;11.23;61.11
35892;BME280;21993;42.672;23.296;2024-03-06T08:05:54;94629.91;;;11.38;60.66
35892;BME280;21993;42.672;23.296;2024-03-06T08:08:21;94627.25;;;11.48;60.39
35892;BME280;21993;42.672;23.296;2024-03-06T08:10:46;94633.97;;;11.60;60.00
35892;BME280;21993;42.672;23.296;2024-03-06T08:13:13;94646.41;;;11.77;59.54
35892;BME280;21993;42.672;23.296;2024-03-06T08:15:39;94633.75;;;11.91;58.99
35892;BME280;21993;42.672;23.296;2024-03-06T08:18:05;94630.25;;;12.00;58.51
35892;BME280;21993;42.672;23.296;2024-03-06T08:20:31;94640.47;;;12.13;58.06
35892;BME280;21993;42.672;23.296;2024-03-06T08:22:57;94637.31;;;12.27;58.26
35892;BME280;21993;42.672;23.296;2024-03-06T08:25:22;94641.00;;;12.34;57.66
35892;BME280;21993;42.672;23.296;2024-03-06T08:27:48;94625.84;;;12.46;57.73
35892;BME280;21993;42.672;23.296;2024-03-06T08:30:13;94629.84;;;12.67;56.52
35892;BME280;21993;42.672;23.296;2024-03-06T08:32:39;94628.94;;;12.77;56.15
35892;BME280;21993;42.672;23.296;2024-03-06T08:35:09;94628.72;;;12.88;56.36
35892;BME280;21993;42.672;23.296;2024-03-06T08:37:41;94627.56;;;13.08;55.70
35892;BME280;21993;42.672;23.296;2024-03-06T08:40:08;94633.13;;;13.23;55.08
35892;BME280;21993;42.672;23.296;2024-03-06T08:42:35;94625.97;;;13.33;55.61
35892;BME280;21993;42.672;23.296;2024-03-06T08:45:01;94628.50;;;13.43;54.47
35892;BME280;21993;42.672;23.296;2024-03-06T08:47:27;94621.72;;;13.66;54.08
35892;BME280;21993;42.672;23.296;2024-03-06T08:49:53;94628.09;;;13.90;53.51
35892;BME280;21993;42.672;23.296;2024-03-06T08:52:19;94623.19;;;14.03;53.27
35892;BME280;21993;42.672;23.296;2024-03-06T08:54:46;94624.91;;;14.20;52.27
35892;BME280;21993;42.672;23.296;2024-03-06T08:57:11;94617.06;;;14.45;51.66
35892;BME280;21993;42.672;23.296;2024-03-06T08:59:37;94616.31;;;14.60;51.60
35892;BME280;21993;42.672;23.296;2024-03-06T09:02:17;94624.09;;;14.70;51.06
35892;BME280;21993;42.672;23.296;2024-03-06T09:04:44;94627.72;;;14.69;51.06
35892;BME280;21993;42.672;23.296;2024-03-06T09:07:10;94637.03;;;14.89;50.74
35892;BME280;21993;42.672;23.296;2024-03-06T09:09:36;94631.41;;;15.09;50.35
35892;BME280;21993;42.672;23.296;2024-03-06T09:12:05;94629.75;;;15.24;49.65
35892;BME280;21993;42.672;23.296;2024-03-06T09:14:32;94630.25;;;15.19;49.14
35892;BME280;21993;42.672;23.296;2024-03-06T09:16:59;94628.41;;;15.36;49.42
35892;BME280;21993;42.672;23.296;2024-03-06T09:19:25;94626.25;;;15.56;49.22
35892;BME280;21993;42.672;23.296;2024-03-06T09:21:51;94619.94;;;15.82;48.37
35892;BME280;21993;42.672;23.296;2024-03-06T09:24:16;94620.22;;;15.95;48.45
35892;BME280;21993;42.672;23.296;2024-03-06T09:26:43;94621.31;;;16.17;47.63
35892;BME280;21993;42.672;23.296;2024-03-06T09:29:09;94618.31;;;16.20;46.69
35892;BME280;21993;42.672;23.296;2024-03-06T09:31:35;94615.75;;;15.95;46.86
35892;BME280;21993;42.672;23.296;2024-03-06T09:34:02;94613.16;;;16.26;46.81
35892;BME280;21993;42.672;23.296;2024-03-06T09:36:28;94610.66;;;16.33;46.84
35892;BME280;21993;42.672;23.296;2024-03-06T09:38:54;94610.97;;;16.61;46.23
35892;BME280;21993;42.672;23.296;2024-03-06T09:41:21;94609.13;;;16.70;45.70
35892;BME280;21993;42.672;23.296;2024-03-06T09:43:47;94609.63;;;16.73;45.21
35892;BME280;21993;42.672;23.296;2024-03-06T09:46:13;94604.88;;;17.06;45.07
35892;BME280;21993;42.672;23.296;2024-03-06T09:48:46;94606.50;;;17.15;44.40
35892;BME280;21993;42.672;23.296;2024-03-06T09:51:12;94601.03;;;17.32;44.29
35892;BME280;21993;42.672;23.296;2024-03-06T09:53:40;94594.50;;;17.42;43.26
35892;BME280;21993;42.672;23.296;2024-03-06T09:56:07;94596.69;;;17.54;43.41
35892;BME280;21993;42.672;23.296;2024-03-06T09:58:33;94597.00;;;17.73;42.92
35892;BME280;21993;42.672;23.296;2024-03-06T10:01:01;94599.38;;;17.68;42.15
35892;BME280;21993;42.672;23.296;2024-03-06T10:03:28;94588.34;;;18.09;41.65
35892;BME280;21993;42.672;23.296;2024-03-06T10:05:54;94587.22;;;18.04;40.69
35892;BME280;21993;42.672;23.296;2024-03-06T10:08:21;94590.16;;;17.94;41.24
35892;BME280;21993;42.672;23.296;2024-03-06T10:10:50;94574.91;;;18.32;40.57
35892;BME280;21993;42.672;23.296;2024-03-06T10:13:16;94574.56;;;18.56;40.51
35892;BME280;21993;42.672;23.296;2024-03-06T10:15:54;94574.88;;;18.83;40.28
35892;BME280;21993;42.672;23.296;2024-03-06T10:18:20;94572.06;;;18.84;39.35
35892;BME280;21993;42.672;23.296;2024-03-06T10:20:46;94570.53;;;18.61;39.61
35892;BME280;21993;42.672;23.296;2024-03-06T10:23:12;94565.41;;;18.59;40.01
35892;BME280;21993;42.672;23.296;2024-03-06T10:25:37;94565.13;;;18.90;39.57
35892;BME280;21993;42.672;23.296;2024-03-06T10:28:11;94559.69;;;19.20;38.50
35892;BME280;21993;42.672;23.296;2024-03-06T10:30:41;94560.16;;;19.51;38.05
35892;BME280;21993;42.672;23.296;2024-03-06T10:33:14;94559.81;;;19.61;37.79
35892;BME280;21993;42.672;23.296;2024-03-06T10:35:44;94552.41;;;19.91;37.41
35892;BME280;21993;42.672;23.296;2024-03-06T10:38:10;94547.53;;;19.94;36.88
35892;BME280;21993;42.672;23.296;2024-03-06T10:40:38;94545.03;;;19.86;37.19
35892;BME280;21993;42.672;23.296;2024-03-06T10:43:05;94546.38;;;19.76;36.81
35892;BME280;21993;42.672;23.296;2024-03-06T10:48:16;94537.53;;;20.03;36.94
35892;BME280;21993;42.672;23.296;2024-03-06T10:50:43;94526.97;;;20.30;36.97
35892;BME280;21993;42.672;23.296;2024-03-06T10:53:14;94526.66;;;20.46;35.97
35892;BME280;21993;42.672;23.296;2024-03-06T10:55:43;94523.19;;;20.59;36.01
35892;BME280;21993;42.672;23.296;2024-03-06T10:58:12;94515.63;;;20.82;36.18
35892;BME280;21993;42.672;23.296;2024-03-06T11:00:39;94508.44;;;20.76;35.32
35892;BME280;21993;42.672;23.296;2024-03-06T11:03:06;94503.34;;;21.07;34.78
35892;BME280;21993;42.672;23.296;2024-03-06T11:05:41;94510.97;;;21.11;34.63
35892;BME280;21993;42.672;23.296;2024-03-06T11:08:11;94504.56;;;21.18;34.94
35892;BME280;21993;42.672;23.296;2024-03-06T11:10:38;94498.19;;;21.26;34.41
35892;BME280;21993;42.672;23.296;2024-03-06T11:15:46;94490.63;;;21.43;33.67
35892;BME280;21993;42.672;23.296;2024-03-06T11:24:17;94477.47;;;21.08;33.42
35892;BME280;21993;42.672;23.296;2024-03-06T11:27:05;94470.69;;;21.19;33.66
35892;BME280;21993;42.672;23.296;2024-03-06T11:30:07;94462.50;;;21.27;33.03
35892;BME280;21993;42.672;23.296;2024-03-06T11:32:36;94466.19;;;21.46;32.26
35892;BME280;21993;42.672;23.296;2024-03-06T11:35:03;94454.00;;;21.63;32.14
35892;BME280;21993;42.672;23.296;2024-03-06T11:37:33;94455.22;;;21.67;31.58
35892;BME280;21993;42.672;23.296;2024-03-06T11:40:00;94444.28;;;21.82;31.80
35892;BME280;21993;42.672;23.296;2024-03-06T11:42:34;94446.97;;;21.82;31.44
35892;BME280;21993;42.672;23.296;2024-03-06T11:45:13;94457.16;;;22.05;31.32
35892;BME280;21993;42.672;23.296;2024-03-06T11:48:01;94449.13;;;22.05;31.05
35892;BME280;21993;42.672;23.296;2024-03-06T11:50:28;94446.19;;;22.19;31.19
35892;BME280;21993;42.672;23.296;2024-03-06T11:52:55;94444.50;;;22.32;30.75
35892;BME280;21993;42.672;23.296;2024-03-06T11:55:22;94443.09;;;22.29;30.44
35892;BME280;21993;42.672;23.296;2024-03-06T11:57:47;94431.72;;;22.34;30.22
35892;BME280;21993;42.672;23.296;2024-03-06T12:00:13;94432.88;;;22.44;29.50
35892;BME280;21993;42.672;23.296;2024-03-06T12:02:40;94439.66;;;22.02;29.12
35892;BME280;21993;42.672;23.296;2024-03-06T12:05:07;94430.94;;;21.75;29.99
35892;BME280;21993;42.672;23.296;2024-03-06T12:07:45;94429.44;;;21.92;30.20
35892;BME280;21993;42.672;23.296;2024-03-06T12:10:11;94424.72;;;21.95;30.37
35892;BME280;21993;42.672;23.296;2024-03-06T12:12:36;94429.22;;;21.94;30.65
35892;BME280;21993;42.672;23.296;2024-03-06T12:15:03;94425.53;;;21.95;30.31
35892;BME280;21993;42.672;23.296;2024-03-06T12:17:29;94428.38;;;22.00;30.17
35892;BME280;21993;42.672;23.296;2024-03-06T12:19:56;94423.16;;;21.74;30.66
35892;BME280;21993;42.672;23.296;2024-03-06T12:22:25;94422.41;;;21.47;30.43
35892;BME280;21993;42.672;23.296;2024-03-06T12:24:58;94416.69;;;21.30;30.95
35892;BME280;21993;42.672;23.296;2024-03-06T12:27:24;94416.72;;;21.03;31.24
35892;BME280;21993;42.672;23.296;2024-03-06T12:29:52;94408.50;;;21.12;31.49
35892;BME280;21993;42.672;23.296;2024-03-06T12:32:19;94415.69;;;20.98;31.54
35892;BME280;21993;42.672;23.296;2024-03-06T12:34:44;94414.66;;;20.72;32.18
35892;BME280;21993;42.672;23.296;2024-03-06T12:37:10;94405.63;;;20.47;31.85
35892;BME280;21993;42.672;23.296;2024-03-06T12:39:36;94414.78;;;20.18;32.15
35892;BME280;21993;42.672;23.296;2024-03-06T12:42:01;94412.69;;;20.07;32.17
35892;BME280;21993;42.672;23.296;2024-03-06T12:44:26;94420.66;;;20.00;32.89
35892;BME280;21993;42.672;23.296;2024-03-06T12:46:52;94420.28;;;20.03;33.15
35892;BME280;21993;42.672;23.296;2024-03-06T12:49:17;94421.00;;;19.77;36.30
35892;BME280;21993;42.672;23.296;2024-03-06T12:51:43;94415.25;;;19.39;37.30
35892;BME280;21993;42.672;23.296;2024-03-06T12:54:09;94421.97;;;19.28;38.61
35892;BME280;21993;42.672;23.296;2024-03-06T12:56:35;94418.03;;;19.24;38.56
35892;BME280;21993;42.672;23.296;2024-03-06T12:59:01;94413.81;;;19.36;38.80
35892;BME280;21993;42.672;23.296;2024-03-06T13:01:26;94410.94;;;19.38;38.90
35892;BME280;21993;42.672;23.296;2024-03-06T13:03:52;94420.53;;;19.26;38.80